sensor_id;sensor_type;location;lat;lon;timestamp;P1;durP1;ratioP1;P2;durP2;ratioP2
71176;SDS011;58877;51.992;4.504;2023-05-10T00:01:47;18.03;;;17.83;;
71176;SDS011;58877;51.992;4.504;2023-05-10T00:04:13;18.76;;;18.66;;
71176;SDS011;58877;51.992;4.504;2023-05-10T00:06:38;18.93;;;18.75;;
71176;SDS011;58877;51.992;4.504;2023-05-10T00:09:04;18.22;;;18.12;;
71176;SDS011;58877;51.992;4.504;2023-05-10T00:11:30;18.54;;;18.34;;
71176;SDS011;58877;51.992;4.504;2023-05-10T00:13:56;18.56;;;18.20;;
71176;SDS011;58877;51.992;4.504;2023-05-10T00:16:21;17.91;;;17.72;;
71176;SDS011;58877;51.992;4.504;2023-05-10T00:18:47;18.26;;;18.24;;
71176;SDS011;58877;51.992;4.504;2023-05-10T00:21:12;17.57;;;17.55;;
71176;SDS011;58877;51.992;4.504;2023-05-10T00:23:38;17.43;;;17.36;;
71176;SDS011;58877;51.992;4.504;2023-05-10T00:26:04;18.19;;;18.17;;
71176;SDS011;58877;51.992;4.504;2023-05-10T00:28:30;17.40;;;17.39;;
71176;SDS011;58877;51.992;4.504;2023-05-10T00:30:55;17.11;;;17.10;;
71176;SDS011;58877;51.992;4.504;2023-05-10T00:33:21;17.67;;;17.57;;
71176;SDS011;58877;51.992;4.504;2023-05-10T00:35:47;18.55;;;18.49;;
71176;SDS011;58877;51.992;4.504;2023-05-10T00:38:13;17.52;;;17.52;;
71176;SDS011;58877;51.992;4.504;2023-05-10T00:40:39;17.38;;;17.35;;
71176;SDS011;58877;51.992;4.504;2023-05-10T00:43:05;15.66;;;15.65;;
71176;SDS011;58877;51.992;4.504;2023-05-10T00:45:32;15.79;;;15.75;;
71176;SDS011;58877;51.992;4.504;2023-05-10T00:48:03;17.11;;;17.03;;
71176;SDS011;58877;51.992;4.504;2023-05-10T00:50:30;19.71;;;19.50;;
71176;SDS011;58877;51.992;4.504;2023-05-10T00:52:57;19.02;;;18.94;;
71176;SDS011;58877;51.992;4.504;2023-05-10T00:55:25;20.50;;;20.20;;
71176;SDS011;58877;51.992;4.504;2023-05-10T00:57:52;19.76;;;19.64;;
71176;SDS011;58877;51.992;4.504;2023-05-10T01:00:19;20.58;;;20.44;;
71176;SDS011;58877;51.992;4.504;2023-05-10T01:02:45;19.86;;;19.63;;
71176;SDS011;58877;51.992;4.504;2023-05-10T01:05:12;19.13;;;19.00;;
71176;SDS011;58877;51.992;4.504;2023-05-10T01:07:38;20.29;;;20.16;;
71176;SDS011;58877;51.992;4.504;2023-05-10T01:10:05;20.64;;;20.42;;
71176;SDS011;58877;51.992;4.504;2023-05-10T01:12:32;21.12;;;20.91;;
71176;SDS011;58877;51.992;4.504;2023-05-10T01:15:02;22.45;;;22.10;;
71176;SDS011;58877;51.992;4.504;2023-05-10T01:17:29;22.95;;;22.52;;
71176;SDS011;58877;51.992;4.504;2023-05-10T01:19:59;23.54;;;22.78;;
71176;SDS011;58877;51.992;4.504;2023-05-10T01:22:31;23.95;;;23.22;;
71176;SDS011;58877;51.992;4.504;2023-05-10T01:31:29;25.06;;;24.45;;
71176;SDS011;58877;51.992;4.504;2023-05-10T01:34:20;25.05;;;24.12;;
71176;SDS011;58877;51.992;4.504;2023-05-10T01:36:55;25.33;;;24.44;;
71176;SDS011;58877;51.992;4.504;2023-05-10T01:42:10;24.24;;;23.29;;
71176;SDS011;58877;51.992;4.504;2023-05-10T01:47:21;22.96;;;22.25;;
71176;SDS011;58877;51.992;4.504;2023-05-10T01:49:54;23.02;;;22.14;;
71176;SDS011;58877;51.992;4.504;2023-05-10T01:52:24;23.33;;;22.18;;
71176;SDS011;58877;51.992;4.504;2023-05-10T01:54:57;22.14;;;21.50;;
71176;SDS011;58877;51.992;4.504;2023-05-10T01:57:30;24.50;;;23.61;;
71176;SDS011;58877;51.992;4.504;2023-05-10T02:00:01;21.88;;;21.29;;
71176;SDS011;58877;51.992;4.504;2023-05-10T02:02:33;21.79;;;21.37;;
71176;SDS011;58877;51.992;4.504;2023-05-10T02:05:05;21.97;;;21.37;;
71176;SDS011;58877;51.992;4.504;2023-05-10T02:07:33;22.99;;;21.99;;
71176;SDS011;58877;51.992;4.504;2023-05-10T02:10:02;22.50;;;21.49;;
71176;SDS011;58877;51.992;4.504;2023-05-10T02:12:31;22.38;;;21.37;;
71176;SDS011;58877;51.992;4.504;2023-05-10T02:15:02;20.08;;;19.62;;
71176;SDS011;58877;51.992;4.504;2023-05-10T02:17:34;19.39;;;19.07;;
71176;SDS011;58877;51.992;4.504;2023-05-10T02:20:02;16.24;;;16.13;;
71176;SDS011;58877;51.992;4.504;2023-05-10T02:22:31;16.14;;;15.91;;
71176;SDS011;58877;51.992;4.504;2023-05-10T02:24:58;15.51;;;15.32;;
71176;SDS011;58877;51.992;4.504;2023-05-10T02:27:26;15.65;;;15.60;;
71176;SDS011;58877;51.992;4.504;2023-05-10T02:29:54;16.82;;;16.69;;
71176;SDS011;58877;51.992;4.504;2023-05-10T02:32:22;16.90;;;16.76;;
71176;SDS011;58877;51.992;4.504;2023-05-10T02:34:51;17.89;;;17.70;;
71176;SDS011;58877;51.992;4.504;2023-05-10T02:37:19;18.12;;;17.98;;
71176;SDS011;58877;51.992;4.504;2023-05-10T02:39:49;18.71;;;18.64;;
71176;SDS011;58877;51.992;4.504;2023-05-10T02:42:18;18.68;;;18.42;;
71176;SDS011;58877;51.992;4.504;2023-05-10T02:44:48;21.39;;;20.99;;
71176;SDS011;58877;51.992;4.504;2023-05-10T02:47:18;21.24;;;21.01;;
71176;SDS011;58877;51.992;4.504;2023-05-10T02:49:45;22.03;;;21.53;;
71176;SDS011;58877;51.992;4.504;2023-05-10T02:52:11;22.29;;;21.67;;
71176;SDS011;58877;51.992;4.504;2023-05-10T02:54:48;23.51;;;23.11;;
71176;SDS011;58877;51.992;4.504;2023-05-10T02:57:16;22.50;;;22.06;;
71176;SDS011;58877;51.992;4.504;2023-05-10T02:59:47;23.86;;;23.21;;
71176;SDS011;58877;51.992;4.504;2023-05-10T03:02:13;23.45;;;23.05;;
71176;SDS011;58877;51.992;4.504;2023-05-10T03:04:38;24.86;;;24.17;;
71176;SDS011;58877;51.992;4.504;2023-05-10T03:07:04;22.21;;;21.71;;
71176;SDS011;58877;51.992;4.504;2023-05-10T03:09:30;22.28;;;22.05;;
71176;SDS011;58877;51.992;4.504;2023-05-10T03:14:57;22.15;;;21.96;;
71176;SDS011;58877;51.992;4.504;2023-05-10T03:17:39;21.00;;;20.88;;
71176;SDS011;58877;51.992;4.504;2023-05-10T03:20:29;21.96;;;21.83;;
71176;SDS011;58877;51.992;4.504;2023-05-10T03:23:07;21.37;;;21.22;;
71176;SDS011;58877;51.992;4.504;2023-05-10T03:25:39;19.39;;;19.24;;
71176;SDS011;58877;51.992;4.504;2023-05-10T03:28:06;17.34;;;17.23;;
71176;SDS011;58877;51.992;4.504;2023-05-10T03:30:33;17.65;;;17.58;;
71176;SDS011;58877;51.992;4.504;2023-05-10T03:33:04;19.01;;;18.83;;
71176;SDS011;58877;51.992;4.504;2023-05-10T03:35:32;20.23;;;20.02;;
71176;SDS011;58877;51.992;4.504;2023-05-10T03:37:58;22.29;;;22.21;;
71176;SDS011;58877;51.992;4.504;2023-05-10T03:40:24;22.63;;;22.48;;
71176;SDS011;58877;51.992;4.504;2023-05-10T03:42:54;23.12;;;23.07;;
71176;SDS011;58877;51.992;4.504;2023-05-10T03:45:20;22.96;;;22.93;;
71176;SDS011;58877;51.992;4.504;2023-05-10T03:47:46;22.54;;;22.39;;
71176;SDS011;58877;51.992;4.504;2023-05-10T03:50:11;21.16;;;21.08;;
71176;SDS011;58877;51.992;4.504;2023-05-10T03:52:37;22.39;;;22.27;;
71176;SDS011;58877;51.992;4.504;2023-05-10T03:55:04;23.36;;;23.19;;
71176;SDS011;58877;51.992;4.504;2023-05-10T03:57:31;24.28;;;24.22;;
71176;SDS011;58877;51.992;4.504;2023-05-10T03:59:57;24.41;;;24.29;;
71176;SDS011;58877;51.992;4.504;2023-05-10T04:02:22;24.86;;;24.69;;
71176;SDS011;58877;51.992;4.504;2023-05-10T04:04:48;24.28;;;24.04;;
71176;SDS011;58877;51.992;4.504;2023-05-10T04:07:14;24.11;;;23.96;;
71176;SDS011;58877;51.992;4.504;2023-05-10T04:09:40;24.86;;;24.60;;
71176;SDS011;58877;51.992;4.504;2023-05-10T04:12:06;24.68;;;24.48;;
71176;SDS011;58877;51.992;4.504;2023-05-10T04:14:31;23.33;;;23.15;;
71176;SDS011;58877;51.992;4.504;2023-05-10T04:16:57;24.33;;;24.14;;
71176;SDS011;58877;51.992;4.504;2023-05-10T04:19:23;23.55;;;23.10;;
71176;SDS011;58877;51.992;4.504;2023-05-10T04:21:48;22.54;;;22.05;;
71176;SDS011;58877;51.992;4.504;2023-05-10T04:24:14;22.29;;;21.81;;
71176;SDS011;58877;51.992;4.504;2023-05-10T04:26:40;21.69;;;21.07;;
71176;SDS011;58877;51.992;4.504;2023-05-10T04:29:06;22.18;;;21.22;;
71176;SDS011;58877;51.992;4.504;2023-05-10T04:31:31;23.99;;;22.98;;
71176;SDS011;58877;51.992;4.504;2023-05-10T04:33:57;23.17;;;22.44;;
71176;SDS011;58877;51.992;4.504;2023-05-10T04:36:22;22.63;;;21.91;;
71176;SDS011;58877;51.992;4.504;2023-05-10T04:38:48;23.05;;;22.08;;
71176;SDS011;58877;51.992;4.504;2023-05-10T04:41:14;25.58;;;23.82;;
71176;SDS011;58877;51.992;4.504;2023-05-10T04:43:39;25.58;;;23.52;;
71176;SDS011;58877;51.992;4.504;2023-05-10T04:46:05;27.24;;;24.17;;
71176;SDS011;58877;51.992;4.504;2023-05-10T04:48:31;23.30;;;20.92;;
71176;SDS011;58877;51.992;4.504;2023-05-10T04:50:56;24.21;;;20.51;;
71176;SDS011;58877;51.992;4.504;2023-05-10T04:53:22;26.21;;;21.56;;
71176;SDS011;58877;51.992;4.504;2023-05-10T04:55:48;25.03;;;21.04;;
71176;SDS011;58877;51.992;4.504;2023-05-10T04:58:24;24.04;;;20.06;;
71176;SDS011;58877;51.992;4.504;2023-05-10T05:00:50;22.72;;;19.60;;
71176;SDS011;58877;51.992;4.504;2023-05-10T05:03:16;22.26;;;18.81;;
71176;SDS011;58877;51.992;4.504;2023-05-10T05:05:41;19.77;;;17.17;;
71176;SDS011;58877;51.992;4.504;2023-05-10T05:14:54;10.26;;;9.50;;
71176;SDS011;58877;51.992;4.504;2023-05-10T05:21:19;5.22;;;5.09;;
71176;SDS011;58877;51.992;4.504;2023-05-10T05:23:52;5.34;;;5.27;;
71176;SDS011;58877;51.992;4.504;2023-05-10T05:26:27;5.17;;;5.14;;
71176;SDS011;58877;51.992;4.504;2023-05-10T05:29:06;4.43;;;4.41;;
71176;SDS011;58877;51.992;4.504;2023-05-10T05:32:15;4.25;;;4.23;;
71176;SDS011;58877;51.992;4.504;2023-05-10T05:34:41;3.82;;;3.80;;
71176;SDS011;58877;51.992;4.504;2023-05-10T05:37:07;4.07;;;4.06;;
71176;SDS011;58877;51.992;4.504;2023-05-10T05:39:40;4.06;;;4.05;;
71176;SDS011;58877;51.992;4.504;2023-05-10T05:42:13;4.38;;;4.37;;
71176;SDS011;58877;51.992;4.504;2023-05-10T05:44:41;4.09;;;4.09;;
71176;SDS011;58877;51.992;4.504;2023-05-10T05:47:07;3.83;;;3.83;;
71176;SDS011;58877;51.992;4.504;2023-05-10T05:49:32;3.84;;;3.84;;
71176;SDS011;58877;51.992;4.504;2023-05-10T05:52:01;4.38;;;4.38;;
71176;SDS011;58877;51.992;4.504;2023-05-10T05:54:28;3.99;;;3.99;;
71176;SDS011;58877;51.992;4.504;2023-05-10T05:56:56;3.87;;;3.87;;
71176;SDS011;58877;51.992;4.504;2023-05-10T05:59:22;4.51;;;4.50;;
71176;SDS011;58877;51.992;4.504;2023-05-10T06:01:48;4.48;;;4.48;;
71176;SDS011;58877;51.992;4.504;2023-05-10T06:04:17;4.71;;;4.71;;
71176;SDS011;58877;51.992;4.504;2023-05-10T06:06:44;5.17;;;5.17;;
71176;SDS011;58877;51.992;4.504;2023-05-10T06:09:10;5.21;;;5.21;;
71176;SDS011;58877;51.992;4.504;2023-05-10T06:11:37;5.33;;;5.33;;
71176;SDS011;58877;51.992;4.504;2023-05-10T06:14:04;5.44;;;5.44;;
71176;SDS011;58877;51.992;4.504;2023-05-10T06:16:32;5.51;;;5.51;;
71176;SDS011;58877;51.992;4.504;2023-05-10T06:18:57;5.22;;;5.21;;
71176;SDS011;58877;51.992;4.504;2023-05-10T06:21:23;5.70;;;5.70;;
71176;SDS011;58877;51.992;4.504;2023-05-10T06:23:49;5.68;;;5.66;;
71176;SDS011;58877;51.992;4.504;2023-05-10T06:26:14;5.85;;;5.75;;
71176;SDS011;58877;51.992;4.504;2023-05-10T06:28:40;5.84;;;5.83;;
71176;SDS011;58877;51.992;4.504;2023-05-10T06:31:06;5.79;;;5.78;;
71176;SDS011;58877;51.992;4.504;2023-05-10T06:33:32;5.20;;;5.19;;
71176;SDS011;58877;51.992;4.504;2023-05-10T06:35:59;4.96;;;4.96;;
71176;SDS011;58877;51.992;4.504;2023-05-10T06:38:25;4.64;;;4.64;;
71176;SDS011;58877;51.992;4.504;2023-05-10T06:40:53;5.04;;;5.04;;
71176;SDS011;58877;51.992;4.504;2023-05-10T06:43:19;5.10;;;5.10;;
71176;SDS011;58877;51.992;4.504;2023-05-10T06:45:45;4.75;;;4.71;;
71176;SDS011;58877;51.992;4.504;2023-05-10T06:48:10;4.66;;;4.65;;
71176;SDS011;58877;51.992;4.504;2023-05-10T06:50:36;4.73;;;4.70;;
71176;SDS011;58877;51.992;4.504;2023-05-10T06:53:02;4.68;;;4.68;;
71176;SDS011;58877;51.992;4.504;2023-05-10T06:55:28;4.51;;;4.51;;
71176;SDS011;58877;51.992;4.504;2023-05-10T06:57:54;4.94;;;4.94;;
71176;SDS011;58877;51.992;4.504;2023-05-10T07:00:20;4.78;;;4.78;;
71176;SDS011;58877;51.992;4.504;2023-05-10T07:02:46;4.48;;;4.48;;
71176;SDS011;58877;51.992;4.504;2023-05-10T07:05:12;4.70;;;4.70;;
71176;SDS011;58877;51.992;4.504;2023-05-10T07:07:37;4.57;;;4.57;;
71176;SDS011;58877;51.992;4.504;2023-05-10T07:10:03;4.83;;;4.82;;
71176;SDS011;58877;51.992;4.504;2023-05-10T07:12:29;5.01;;;4.99;;
71176;SDS011;58877;51.992;4.504;2023-05-10T07:14:55;5.31;;;5.28;;
71176;SDS011;58877;51.992;4.504;2023-05-10T07:17:21;5.14;;;5.14;;
71176;SDS011;58877;51.992;4.504;2023-05-10T07:19:47;5.08;;;5.08;;
71176;SDS011;58877;51.992;4.504;2023-05-10T07:22:15;5.23;;;5.23;;
71176;SDS011;58877;51.992;4.504;2023-05-10T07:24:41;5.28;;;5.28;;
71176;SDS011;58877;51.992;4.504;2023-05-10T07:27:08;5.58;;;5.58;;
71176;SDS011;58877;51.992;4.504;2023-05-10T07:29:34;5.35;;;5.35;;
71176;SDS011;58877;51.992;4.504;2023-05-10T07:32:00;6.30;;;6.29;;
71176;SDS011;58877;51.992;4.504;2023-05-10T07:34:26;6.19;;;6.18;;
71176;SDS011;58877;51.992;4.504;2023-05-10T07:36:52;5.90;;;5.89;;
71176;SDS011;58877;51.992;4.504;2023-05-10T07:39:18;5.85;;;5.83;;
71176;SDS011;58877;51.992;4.504;2023-05-10T07:41:45;6.06;;;6.02;;
71176;SDS011;58877;51.992;4.504;2023-05-10T07:44:11;5.60;;;5.56;;
71176;SDS011;58877;51.992;4.504;2023-05-10T07:46:37;5.98;;;5.97;;
71176;SDS011;58877;51.992;4.504;2023-05-10T07:49:03;6.15;;;6.14;;
71176;SDS011;58877;51.992;4.504;2023-05-10T07:51:29;5.24;;;5.22;;
71176;SDS011;58877;51.992;4.504;2023-05-10T07:53:55;5.75;;;5.72;;
71176;SDS011;58877;51.992;4.504;2023-05-10T07:56:24;5.71;;;5.67;;
71176;SDS011;58877;51.992;4.504;2023-05-10T07:59:00;5.48;;;5.46;;
71176;SDS011;58877;51.992;4.504;2023-05-10T08:01:32;5.63;;;5.62;;
71176;SDS011;58877;51.992;4.504;2023-05-10T08:03:59;5.49;;;5.49;;
71176;SDS011;58877;51.992;4.504;2023-05-10T08:06:27;5.41;;;5.40;;
71176;SDS011;58877;51.992;4.504;2023-05-10T08:08:54;5.43;;;5.43;;
71176;SDS011;58877;51.992;4.504;2023-05-10T08:11:21;5.46;;;5.46;;
71176;SDS011;58877;51.992;4.504;2023-05-10T08:13:47;5.71;;;5.69;;
71176;SDS011;58877;51.992;4.504;2023-05-10T08:16:15;5.82;;;5.80;;
71176;SDS011;58877;51.992;4.504;2023-05-10T08:18:43;5.37;;;5.35;;
71176;SDS011;58877;51.992;4.504;2023-05-10T08:21:10;5.20;;;5.19;;
71176;SDS011;58877;51.992;4.504;2023-05-10T08:23:36;5.01;;;5.00;;
71176;SDS011;58877;51.992;4.504;2023-05-10T08:26:02;5.06;;;5.06;;
71176;SDS011;58877;51.992;4.504;2023-05-10T08:28:29;5.37;;;5.36;;
71176;SDS011;58877;51.992;4.504;2023-05-10T08:30:55;5.12;;;5.11;;
71176;SDS011;58877;51.992;4.504;2023-05-10T08:33:20;5.10;;;5.10;;
71176;SDS011;58877;51.992;4.504;2023-05-10T08:35:46;4.80;;;4.80;;
71176;SDS011;58877;51.992;4.504;2023-05-10T08:38:12;4.40;;;4.40;;
71176;SDS011;58877;51.992;4.504;2023-05-10T08:40:38;4.23;;;4.23;;
71176;SDS011;58877;51.992;4.504;2023-05-10T08:43:11;4.43;;;4.43;;
71176;SDS011;58877;51.992;4.504;2023-05-10T08:45:43;4.81;;;4.80;;
71176;SDS011;58877;51.992;4.504;2023-05-10T08:48:13;4.58;;;4.57;;
71176;SDS011;58877;51.992;4.504;2023-05-10T08:50:40;4.40;;;4.40;;
71176;SDS011;58877;51.992;4.504;2023-05-10T08:53:10;4.15;;;4.15;;
71176;SDS011;58877;51.992;4.504;2023-05-10T08:55:38;4.16;;;4.16;;
71176;SDS011;58877;51.992;4.504;2023-05-10T08:58:05;4.06;;;4.06;;
71176;SDS011;58877;51.992;4.504;2023-05-10T09:00:32;6.16;;;6.16;;
71176;SDS011;58877;51.992;4.504;2023-05-10T09:02:58;8.20;;;8.20;;
71176;SDS011;58877;51.992;4.504;2023-05-10T09:05:25;3.97;;;3.97;;
71176;SDS011;58877;51.992;4.504;2023-05-10T09:07:51;3.65;;;3.65;;
71176;SDS011;58877;51.992;4.504;2023-05-10T09:10:16;3.56;;;3.56;;
71176;SDS011;58877;51.992;4.504;2023-05-10T09:12:43;3.24;;;3.24;;
71176;SDS011;58877;51.992;4.504;2023-05-10T09:15:11;3.46;;;3.46;;
71176;SDS011;58877;51.992;4.504;2023-05-10T09:17:40;3.77;;;3.77;;
71176;SDS011;58877;51.992;4.504;2023-05-10T09:20:07;4.49;;;4.48;;
71176;SDS011;58877;51.992;4.504;2023-05-10T09:22:33;4.58;;;4.58;;
71176;SDS011;58877;51.992;4.504;2023-05-10T09:25:05;4.49;;;4.49;;
71176;SDS011;58877;51.992;4.504;2023-05-10T09:27:31;4.54;;;4.54;;
71176;SDS011;58877;51.992;4.504;2023-05-10T09:29:57;3.42;;;3.42;;
71176;SDS011;58877;51.992;4.504;2023-05-10T09:32:35;3.63;;;3.63;;
71176;SDS011;58877;51.992;4.504;2023-05-10T09:37:41;4.72;;;4.72;;
71176;SDS011;58877;51.992;4.504;2023-05-10T09:40:12;5.35;;;5.35;;
71176;SDS011;58877;51.992;4.504;2023-05-10T09:42:58;5.02;;;5.02;;
71176;SDS011;58877;51.992;4.504;2023-05-10T09:45:36;5.32;;;5.30;;
71176;SDS011;58877;51.992;4.504;2023-05-10T09:48:02;5.13;;;5.10;;
71176;SDS011;58877;51.992;4.504;2023-05-10T09:50:29;4.96;;;4.94;;
71176;SDS011;58877;51.992;4.504;2023-05-10T09:52:56;5.24;;;5.22;;
71176;SDS011;58877;51.992;4.504;2023-05-10T09:55:46;5.47;;;5.44;;
71176;SDS011;58877;51.992;4.504;2023-05-10T09:58:12;5.71;;;5.69;;
71176;SDS011;58877;51.992;4.504;2023-05-10T10:00:44;5.27;;;5.24;;
71176;SDS011;58877;51.992;4.504;2023-05-10T10:03:16;5.45;;;5.43;;
71176;SDS011;58877;51.992;4.504;2023-05-10T10:05:44;5.14;;;5.12;;
71176;SDS011;58877;51.992;4.504;2023-05-10T10:08:12;5.03;;;5.01;;
71176;SDS011;58877;51.992;4.504;2023-05-10T10:10:38;4.87;;;4.87;;
71176;SDS011;58877;51.992;4.504;2023-05-10T10:13:11;4.56;;;4.56;;
71176;SDS011;58877;51.992;4.504;2023-05-10T10:15:37;4.05;;;4.05;;
71176;SDS011;58877;51.992;4.504;2023-05-10T10:18:03;3.33;;;3.33;;
71176;SDS011;58877;51.992;4.504;2023-05-10T10:20:30;3.65;;;3.65;;
71176;SDS011;58877;51.992;4.504;2023-05-10T10:22:56;3.70;;;3.70;;
71176;SDS011;58877;51.992;4.504;2023-05-10T10:25:22;4.55;;;4.55;;
71176;SDS011;58877;51.992;4.504;2023-05-10T10:36:10;6.08;;;6.02;;
71176;SDS011;58877;51.992;4.504;2023-05-10T10:57:28;5.08;;;5.08;;
71176;SDS011;58877;51.992;4.504;2023-05-10T11:02:46;4.48;;;4.48;;
71176;SDS011;58877;51.992;4.504;2023-05-10T11:05:25;4.87;;;4.87;;
71176;SDS011;58877;51.992;4.504;2023-05-10T11:08:07;5.55;;;5.55;;
71176;SDS011;58877;51.992;4.504;2023-05-10T11:10:50;5.62;;;5.62;;
71176;SDS011;58877;51.992;4.504;2023-05-10T11:13:31;5.49;;;5.49;;
71176;SDS011;58877;51.992;4.504;2023-05-10T11:16:12;5.72;;;5.72;;
71176;SDS011;58877;51.992;4.504;2023-05-10T11:18:40;5.52;;;5.52;;
71176;SDS011;58877;51.992;4.504;2023-05-10T11:21:16;5.70;;;5.70;;
71176;SDS011;58877;51.992;4.504;2023-05-10T11:23:52;6.53;;;6.52;;
71176;SDS011;58877;51.992;4.504;2023-05-10T11:26:23;6.26;;;6.26;;
71176;SDS011;58877;51.992;4.504;2023-05-10T11:28:51;6.07;;;6.07;;
71176;SDS011;58877;51.992;4.504;2023-05-10T11:31:23;5.25;;;5.25;;
71176;SDS011;58877;51.992;4.504;2023-05-10T11:33:55;4.66;;;4.66;;
71176;SDS011;58877;51.992;4.504;2023-05-10T11:36:24;4.82;;;4.81;;
71176;SDS011;58877;51.992;4.504;2023-05-10T11:38:52;4.57;;;4.57;;
71176;SDS011;58877;51.992;4.504;2023-05-10T11:41:19;4.69;;;4.69;;
71176;SDS011;58877;51.992;4.504;2023-05-10T11:43:49;4.32;;;4.30;;
71176;SDS011;58877;51.992;4.504;2023-05-10T11:46:16;4.40;;;4.40;;
71176;SDS011;58877;51.992;4.504;2023-05-10T11:48:45;4.40;;;4.40;;
71176;SDS011;58877;51.992;4.504;2023-05-10T11:51:14;4.25;;;4.25;;
71176;SDS011;58877;51.992;4.504;2023-05-10T11:53:40;4.00;;;4.00;;
71176;SDS011;58877;51.992;4.504;2023-05-10T11:56:06;4.22;;;4.20;;
71176;SDS011;58877;51.992;4.504;2023-05-10T11:58:34;4.79;;;4.79;;
71176;SDS011;58877;51.992;4.504;2023-05-10T12:01:02;4.30;;;4.30;;
71176;SDS011;58877;51.992;4.504;2023-05-10T12:03:30;4.53;;;4.53;;
71176;SDS011;58877;51.992;4.504;2023-05-10T12:05:58;4.68;;;4.68;;
71176;SDS011;58877;51.992;4.504;2023-05-10T12:08:26;4.76;;;4.76;;
71176;SDS011;58877;51.992;4.504;2023-05-10T12:10:53;4.75;;;4.75;;
71176;SDS011;58877;51.992;4.504;2023-05-10T12:13:29;5.21;;;5.21;;
71176;SDS011;58877;51.992;4.504;2023-05-10T12:15:58;4.99;;;4.98;;
71176;SDS011;58877;51.992;4.504;2023-05-10T12:18:25;4.85;;;4.84;;
71176;SDS011;58877;51.992;4.504;2023-05-10T12:20:52;5.41;;;5.40;;
71176;SDS011;58877;51.992;4.504;2023-05-10T12:23:18;5.69;;;5.69;;
71176;SDS011;58877;51.992;4.504;2023-05-10T12:25:45;5.38;;;5.38;;
71176;SDS011;58877;51.992;4.504;2023-05-10T12:28:11;5.50;;;5.50;;
71176;SDS011;58877;51.992;4.504;2023-05-10T12:30:37;5.45;;;5.44;;
71176;SDS011;58877;51.992;4.504;2023-05-10T12:33:11;5.04;;;5.01;;
71176;SDS011;58877;51.992;4.504;2023-05-10T12:35:48;4.44;;;4.41;;
71176;SDS011;58877;51.992;4.504;2023-05-10T12:41:05;5.20;;;5.16;;
71176;SDS011;58877;51.992;4.504;2023-05-10T12:43:32;5.63;;;5.60;;
71176;SDS011;58877;51.992;4.504;2023-05-10T12:46:03;5.29;;;5.28;;
71176;SDS011;58877;51.992;4.504;2023-05-10T12:48:37;5.47;;;5.43;;
71176;SDS011;58877;51.992;4.504;2023-05-10T12:51:04;4.75;;;4.74;;
71176;SDS011;58877;51.992;4.504;2023-05-10T12:53:30;4.78;;;4.78;;
71176;SDS011;58877;51.992;4.504;2023-05-10T12:55:56;5.01;;;5.01;;
71176;SDS011;58877;51.992;4.504;2023-05-10T12:58:22;4.32;;;4.31;;
71176;SDS011;58877;51.992;4.504;2023-05-10T13:00:48;4.53;;;4.51;;
71176;SDS011;58877;51.992;4.504;2023-05-10T13:03:14;5.10;;;5.09;;
71176;SDS011;58877;51.992;4.504;2023-05-10T13:05:40;4.42;;;4.42;;
71176;SDS011;58877;51.992;4.504;2023-05-10T13:08:06;4.23;;;4.23;;
71176;SDS011;58877;51.992;4.504;2023-05-10T13:10:31;4.20;;;4.18;;
71176;SDS011;58877;51.992;4.504;2023-05-10T13:12:58;4.28;;;4.24;;
71176;SDS011;58877;51.992;4.504;2023-05-10T13:15:25;3.46;;;3.43;;
71176;SDS011;58877;51.992;4.504;2023-05-10T13:17:51;3.70;;;3.70;;
71176;SDS011;58877;51.992;4.504;2023-05-10T13:20:17;4.09;;;4.09;;
71176;SDS011;58877;51.992;4.504;2023-05-10T13:22:43;4.12;;;4.11;;
71176;SDS011;58877;51.992;4.504;2023-05-10T13:25:10;3.91;;;3.91;;
71176;SDS011;58877;51.992;4.504;2023-05-10T13:27:36;4.05;;;4.04;;
71176;SDS011;58877;51.992;4.504;2023-05-10T13:30:03;3.95;;;3.93;;
71176;SDS011;58877;51.992;4.504;2023-05-10T13:32:29;4.20;;;4.19;;
71176;SDS011;58877;51.992;4.504;2023-05-10T13:34:55;3.77;;;3.75;;
71176;SDS011;58877;51.992;4.504;2023-05-10T13:37:21;3.58;;;3.55;;
71176;SDS011;58877;51.992;4.504;2023-05-10T13:39:46;3.92;;;3.90;;
71176;SDS011;58877;51.992;4.504;2023-05-10T13:42:12;4.03;;;3.98;;
71176;SDS011;58877;51.992;4.504;2023-05-10T13:44:38;4.42;;;4.37;;
71176;SDS011;58877;51.992;4.504;2023-05-10T13:47:04;4.30;;;4.26;;
71176;SDS011;58877;51.992;4.504;2023-05-10T13:49:30;3.98;;;3.97;;
71176;SDS011;58877;51.992;4.504;2023-05-10T13:51:56;4.44;;;4.43;;
71176;SDS011;58877;51.992;4.504;2023-05-10T13:54:22;4.32;;;4.32;;
71176;SDS011;58877;51.992;4.504;2023-05-10T13:56:48;4.07;;;4.07;;
71176;SDS011;58877;51.992;4.504;2023-05-10T13:59:14;3.71;;;3.71;;
71176;SDS011;58877;51.992;4.504;2023-05-10T14:01:40;3.73;;;3.73;;
71176;SDS011;58877;51.992;4.504;2023-05-10T14:04:07;3.66;;;3.66;;
71176;SDS011;58877;51.992;4.504;2023-05-10T14:06:35;3.75;;;3.75;;
71176;SDS011;58877;51.992;4.504;2023-05-10T14:09:02;3.93;;;3.91;;
71176;SDS011;58877;51.992;4.504;2023-05-10T14:11:30;4.14;;;4.14;;
71176;SDS011;58877;51.992;4.504;2023-05-10T14:13:56;4.35;;;4.35;;
71176;SDS011;58877;51.992;4.504;2023-05-10T14:16:21;4.27;;;4.27;;
71176;SDS011;58877;51.992;4.504;2023-05-10T14:18:47;3.47;;;3.47;;
71176;SDS011;58877;51.992;4.504;2023-05-10T14:21:15;4.32;;;4.29;;
71176;SDS011;58877;51.992;4.504;2023-05-10T14:23:41;3.76;;;3.73;;
71176;SDS011;58877;51.992;4.504;2023-05-10T14:26:06;4.23;;;4.22;;
71176;SDS011;58877;51.992;4.504;2023-05-10T14:28:32;4.20;;;4.18;;
71176;SDS011;58877;51.992;4.504;2023-05-10T14:30:58;4.87;;;4.84;;
71176;SDS011;58877;51.992;4.504;2023-05-10T14:33:24;4.50;;;4.50;;
71176;SDS011;58877;51.992;4.504;2023-05-10T14:35:50;4.15;;;4.15;;
71176;SDS011;58877;51.992;4.504;2023-05-10T14:38:15;4.02;;;4.02;;
71176;SDS011;58877;51.992;4.504;2023-05-10T14:40:41;4.62;;;4.62;;
71176;SDS011;58877;51.992;4.504;2023-05-10T14:43:08;3.92;;;3.92;;
71176;SDS011;58877;51.992;4.504;2023-05-10T14:45:34;4.22;;;4.22;;
71176;SDS011;58877;51.992;4.504;2023-05-10T14:48:00;4.05;;;4.05;;
71176;SDS011;58877;51.992;4.504;2023-05-10T14:50:26;3.98;;;3.98;;
71176;SDS011;58877;51.992;4.504;2023-05-10T14:52:52;4.54;;;4.52;;
71176;SDS011;58877;51.992;4.504;2023-05-10T14:55:17;3.91;;;3.91;;
71176;SDS011;58877;51.992;4.504;2023-05-10T14:57:43;3.74;;;3.74;;
71176;SDS011;58877;51.992;4.504;2023-05-10T15:00:09;3.39;;;3.39;;
71176;SDS011;58877;51.992;4.504;2023-05-10T15:02:35;3.73;;;3.73;;
71176;SDS011;58877;51.992;4.504;2023-05-10T15:05:01;3.22;;;3.22;;
71176;SDS011;58877;51.992;4.504;2023-05-10T15:10:31;3.05;;;3.05;;
71176;SDS011;58877;51.992;4.504;2023-05-10T15:13:00;3.59;;;3.59;;
71176;SDS011;58877;51.992;4.504;2023-05-10T15:15:26;3.95;;;3.95;;
71176;SDS011;58877;51.992;4.504;2023-05-10T15:17:55;3.64;;;3.64;;
71176;SDS011;58877;51.992;4.504;2023-05-10T15:20:26;3.52;;;3.52;;
71176;SDS011;58877;51.992;4.504;2023-05-10T15:22:55;3.53;;;3.53;;
71176;SDS011;58877;51.992;4.504;2023-05-10T15:25:21;3.82;;;3.82;;
71176;SDS011;58877;51.992;4.504;2023-05-10T15:27:51;3.21;;;3.21;;
71176;SDS011;58877;51.992;4.504;2023-05-10T15:30:19;3.66;;;3.66;;
71176;SDS011;58877;51.992;4.504;2023-05-10T15:32:45;2.63;;;2.63;;
71176;SDS011;58877;51.992;4.504;2023-05-10T15:35:17;3.05;;;3.05;;
71176;SDS011;58877;51.992;4.504;2023-05-10T15:37:43;2.66;;;2.66;;
71176;SDS011;58877;51.992;4.504;2023-05-10T15:40:08;2.83;;;2.83;;
71176;SDS011;58877;51.992;4.504;2023-05-10T15:42:37;2.90;;;2.90;;
71176;SDS011;58877;51.992;4.504;2023-05-10T15:45:03;2.70;;;2.70;;
71176;SDS011;58877;51.992;4.504;2023-05-10T15:47:29;2.74;;;2.74;;